Chokio, Minnesota
Current Conditions -  °F | °C
As of 4:33 PM on Thursday 18 Dec 2014 (Local Time) from KMOX Reporting Station
Overcast Overcast  
Wind Chill:   Ceiling: 7000
Heat Index: 19°   Visibility: 7mi
Dew Point: 16°   Wind: 12mph
Humidity: 86%   Direction: 130°SE
Pressure: 30.2"   Gusts: NA
Location:  45.57°N, 96.17°W
Report Text: KMOX 182233Z AUTO 13010KT 7SM OVC070 M07/M09 A3020 RMK AO2
Loading
Personal Weather Stations






























Interactive Weather Map New forecast layout! Learn more

10-Day Weather Forecast

Advertisements
Track Severe Weather on mobile